23:59
Airports
History
Links
Donate
Help keep this website running!
PayPal
Bitcoin
This page is community maintained. The information is intended for PC simulator navigation or reference.
Always use approved charts for navigation.
VIJO
JODHPUR
JODHPUR (VIJO)
Jodhpur, Rajasthan, India (342011)
(C)
Lat/Lng:26° 15' 3.93" N / 73° 2' 55.93" E
26.251092 / 73.04887
Elevation:717'ft / 219mMSL
ID / ICAO:VIJO
Runways:1
Longest:05-23
Asphalt 2,752m / 9,029ft
Controlled:Yes
METAR05:30 GMT 2017-10-24
Altimeter: 29.94
Visibility: 3.7 statute miles
Wind: 4 knots (from 220°)
Temp: 30°c / 86°f
Humidity: 40.2%

METAR: VIJO 240530Z 22004KT 6000 SKC 30/15 Q1014 NOSIG

(Powered by phpweather)
Airport Radio Frequencies
Tower: 123.5
Approach: 122.7
Nearby VORs <50NM
Nearby NDBs
Runway 05 / 23
Dimensions:2752 x 45.7m 9029' x 150'ft
Surface:Asphalt
Edge Lights:High intensity
Runway 05 [A]Runway 23 [B]
Heading:044°TH 224°TH
Lat:
Lng:
26° 14' 32.31"N
73° 2' 21.09"E
26° 15' 35.55"N
73° 3' 30.77"E
User Notes and Comments
26° 15' 3.93" N / 73° 2' 55.93" E
Distance To
Airport ID:
Nearby Airports
(U) PHALODI 72.1 NM
VA2A NW 325°
(U) NAGAUR 77.7 NM
VI73 NNE 31°
(U) SIROHI 94.5 NM
VA38 S 187°
(U) UTTARLAI 101.9 NM
VIUT WSW 252°
(U) ABU ROAD 122.5 NM
VA74 S 187°
(U) ONDWA 123.9 NM
VA1H SE 128°
(C) UDAIPUR 124.6 NM
VAUD SSE 154°
VFR Chart
Flight Planning at SkyVector.com